Arthur City, Texas
Current Conditions -  °F | °C
As of 7:15 AM on Friday 24 Oct 2014 (Local Time) from KHHW Reporting Station
Clear Clear  
Wind Chill: 54°   Ceiling: Unl
Heat Index: 54°   Visibility: 7mi
Dew Point: 51°   Wind: 0mph
Humidity: 89%   Direction: NA
Pressure: 30.15"   Gusts: NA
Location:  33.87°N, 95.51°W
Report Text: KHHW 241215Z AUTO 00000KT 7SM CLR 12/10 A3015 RMK AO2 T01200103
Loading
Personal Weather Stations






























Interactive Weather Map
Tropical Storm Tracking
New forecast layout! Learn more

10-Day Weather Forecast

Advertisements
Track Severe Weather on mobile